Time;durP1;ratioP1;P1;durP2;ratioP2;P2;SDS_P1;SDS_P2;PMS_P1;PMS_P2;Temp;Humidity;BMP_temperature;BMP_pressure;BME280_temperature;BME280_humidity;BME280_pressure;Samples;Min_cycle;Max_cycle;Signal;HPM_P1;HPM_P2
2022/04/25 00:02:15;;;;;;;22.33;19.93;;;;;;;;;;5004684;28;20207;-80
2022/04/25 00:04:41;;;;;;;23.00;20.60;;;;;;;;;;5008278;28;20229;-80
2022/04/25 00:07:08;;;;;;;21.50;19.37;;;;;;;;;;5004164;28;20207;-81
2022/04/25 00:09:34;;;;;;;24.03;21.53;;;;;;;;;;5005536;28;20179;-80
2022/04/25 00:12:00;;;;;;;23.23;20.83;;;;;;;;;;5010357;28;20224;-80
2022/04/25 00:14:26;;;;;;;20.47;18.27;;;;;;;;;;5007392;28;20216;-80
2022/04/25 00:16:56;;;;;;;21.00;18.83;;;;;;;;;;4998660;28;20237;-81
2022/04/25 00:19:25;;;;;;;22.97;20.47;;;;;;;;;;5010823;28;20195;-80
2022/04/25 00:21:51;;;;;;;21.27;19.07;;;;;;;;;;5006031;28;20215;-81
2022/04/25 00:24:18;;;;;;;22.13;19.83;;;;;;;;;;5011628;28;20183;-80
2022/04/25 00:26:44;;;;;;;23.93;21.40;;;;;;;;;;5009932;28;20191;-80
2022/04/25 00:29:11;;;;;;;20.00;17.97;;;;;;;;;;5009208;28;20187;-80
2022/04/25 00:31:37;;;;;;;20.50;18.40;;;;;;;;;;5007516;28;20183;-80
2022/04/25 00:34:03;;;;;;;21.40;19.20;;;;;;;;;;5009563;28;20667;-81
2022/04/25 00:36:29;;;;;;;22.20;19.90;;;;;;;;;;5001242;28;20184;-79
2022/04/25 00:38:55;;;;;;;23.50;21.00;;;;;;;;;;5008597;28;20207;-79
2022/04/25 00:41:21;;;;;;;24.23;20.97;;;;;;;;;;5006921;28;20179;-80
2022/04/25 00:43:47;;;;;;;20.87;18.73;;;;;;;;;;5006733;28;20767;-80
2022/04/25 00:46:20;;;;;;;24.33;21.23;;;;;;;;;;5010282;28;20182;-79
2022/04/25 00:48:46;;;;;;;19.70;17.60;;;;;;;;;;5008213;28;20199;-80
2022/04/25 00:51:13;;;;;;;18.07;15.60;;;;;;;;;;5007569;28;20235;-80
2022/04/25 00:53:39;;;;;;;15.53;13.93;;;;;;;;;;5001232;28;20710;-82
2022/04/25 00:56:06;;;;;;;14.40;13.00;;;;;;;;;;5009701;28;20203;-79
2022/04/25 00:58:33;;;;;;;16.27;14.67;;;;;;;;;;5012592;28;20203;-81
2022/04/25 01:00:59;;;;;;;17.60;15.80;;;;;;;;;;5007796;28;20263;-80
2022/04/25 01:03:25;;;;;;;19.13;17.13;;;;;;;;;;5012315;28;20207;-80
2022/04/25 01:05:52;;;;;;;19.53;17.53;;;;;;;;;;4999880;28;20282;-80
2022/04/25 01:08:19;;;;;;;18.73;16.83;;;;;;;;;;4993251;28;20650;-80
2022/04/25 01:10:45;;;;;;;18.30;16.37;;;;;;;;;;5012433;28;20686;-80
2022/04/25 01:13:12;;;;;;;17.37;15.47;;;;;;;;;;5013464;28;20183;-80
2022/04/25 01:15:38;;;;;;;23.50;19.77;;;;;;;;;;5012809;28;20183;-80
2022/04/25 01:18:04;;;;;;;23.00;20.53;;;;;;;;;;5012128;28;20203;-79
2022/04/25 01:20:30;;;;;;;19.73;17.77;;;;;;;;;;5011527;28;20859;-80
2022/04/25 01:28:37;;;;;;;14.43;13.03;;;;;;;;;;5006707;28;20198;-82
2022/04/25 01:31:03;;;;;;;14.23;12.83;;;;;;;;;;5012508;28;20187;-80
2022/04/25 01:33:30;;;;;;;14.27;12.87;;;;;;;;;;4995620;28;20195;-80
2022/04/25 01:35:56;;;;;;;14.90;13.40;;;;;;;;;;5012264;28;20179;-80
2022/04/25 01:38:22;;;;;;;12.97;11.77;;;;;;;;;;5010918;28;20203;-80
2022/04/25 01:40:48;;;;;;;13.57;12.27;;;;;;;;;;4997479;28;20227;-80
2022/04/25 01:43:14;;;;;;;15.00;13.50;;;;;;;;;;5011692;28;20587;-80
2022/04/25 01:45:41;;;;;;;16.53;14.93;;;;;;;;;;5012193;28;20188;-79
2022/04/25 01:48:07;;;;;;;15.30;13.80;;;;;;;;;;5010270;28;20199;-80
2022/04/25 01:50:33;;;;;;;16.90;15.20;;;;;;;;;;5014342;28;20784;-80
2022/04/25 01:53:02;;;;;;;16.77;15.03;;;;;;;;;;5012239;28;20209;-80
2022/04/25 01:55:28;;;;;;;14.50;13.10;;;;;;;;;;5008823;28;20188;-80
2022/04/25 01:57:54;;;;;;;14.77;13.27;;;;;;;;;;5005775;28;20204;-80
2022/04/25 02:00:21;;;;;;;17.53;15.83;;;;;;;;;;5005318;28;20242;-80
2022/04/25 02:02:47;;;;;;;18.60;16.70;;;;;;;;;;5008925;28;20217;-80
2022/04/25 02:05:13;;;;;;;19.23;17.23;;;;;;;;;;5010562;28;20658;-80
2022/04/25 02:07:39;;;;;;;20.83;18.67;;;;;;;;;;5027304;28;20199;-80
2022/04/25 02:10:06;;;;;;;18.67;16.57;;;;;;;;;;5007568;28;20184;-80
2022/04/25 02:12:32;;;;;;;19.63;17.60;;;;;;;;;;5018449;28;20206;-80
2022/04/25 02:14:58;;;;;;;15.30;13.80;;;;;;;;;;5003134;28;20195;-79
2022/04/25 02:17:24;;;;;;;13.90;12.60;;;;;;;;;;5012196;28;20209;-80
2022/04/25 02:19:50;;;;;;;14.67;13.27;;;;;;;;;;5006542;28;20329;-80
2022/04/25 02:22:17;;;;;;;15.23;13.63;;;;;;;;;;5011013;28;20238;-80
2022/04/25 02:24:43;;;;;;;15.60;14.10;;;;;;;;;;5007189;28;20195;-80
2022/04/25 02:27:10;;;;;;;15.67;14.07;;;;;;;;;;5008332;28;20199;-80
2022/04/25 02:29:41;;;;;;;15.87;14.27;;;;;;;;;;5010910;28;20684;-81
2022/04/25 02:32:12;;;;;;;18.77;16.77;;;;;;;;;;5005555;28;20187;-80
2022/04/25 02:34:39;;;;;;;21.03;18.80;;;;;;;;;;5010720;28;20861;-80
2022/04/25 02:37:06;;;;;;;20.90;18.70;;;;;;;;;;5010265;28;20218;-80
2022/04/25 02:39:33;;;;;;;21.70;19.40;;;;;;;;;;5004834;28;20207;-80
2022/04/25 02:41:59;;;;;;;20.93;18.43;;;;;;;;;;5011679;28;20199;-80
2022/04/25 02:44:25;;;;;;;17.13;15.43;;;;;;;;;;5007855;28;20188;-80
2022/04/25 02:46:51;;;;;;;15.90;14.30;;;;;;;;;;5014987;28;20640;-80
2022/04/25 02:49:17;;;;;;;15.23;13.77;;;;;;;;;;5006631;28;20197;-80
2022/04/25 02:51:44;;;;;;;14.77;13.27;;;;;;;;;;4991148;28;20191;-81
2022/04/25 02:54:10;;;;;;;15.33;13.83;;;;;;;;;;5010834;28;20264;-80
2022/04/25 02:56:36;;;;;;;15.80;14.30;;;;;;;;;;5015699;28;20272;-80
2022/04/25 02:59:02;;;;;;;18.40;16.43;;;;;;;;;;5008220;28;20215;-80
2022/04/25 03:01:28;;;;;;;16.90;15.13;;;;;;;;;;5011039;28;20266;-80
2022/04/25 03:03:54;;;;;;;19.07;17.13;;;;;;;;;;5007317;28;20187;-80
2022/04/25 03:06:20;;;;;;;20.08;18.08;;;;;;;;;;5008087;28;20982;-79
2022/04/25 03:08:47;;;;;;;19.47;17.47;;;;;;;;;;5007544;28;20243;-80
2022/04/25 03:11:13;;;;;;;19.57;17.50;;;;;;;;;;5005432;28;20194;-80
2022/04/25 03:13:39;;;;;;;18.87;16.43;;;;;;;;;;5010606;28;20191;-80
2022/04/25 03:16:06;;;;;;;21.33;19.03;;;;;;;;;;5009897;28;20390;-80
2022/04/25 03:18:32;;;;;;;21.00;18.37;;;;;;;;;;5011016;28;20206;-80
2022/04/25 03:20:59;;;;;;;19.50;17.40;;;;;;;;;;4993938;28;20191;-79
2022/04/25 03:23:25;;;;;;;19.63;17.63;;;;;;;;;;5009006;28;20207;-80
2022/04/25 03:25:51;;;;;;;18.20;16.33;;;;;;;;;;5009881;28;20203;-82
2022/04/25 03:28:18;;;;;;;19.50;17.23;;;;;;;;;;5009377;28;20206;-80
2022/04/25 03:30:44;;;;;;;18.60;16.73;;;;;;;;;;5010891;28;20183;-80
2022/04/25 03:33:15;;;;;;;18.90;16.90;;;;;;;;;;5002109;28;20192;-80
2022/04/25 03:35:45;;;;;;;17.33;15.53;;;;;;;;;;5011051;28;20199;-80
2022/04/25 03:38:12;;;;;;;20.80;17.47;;;;;;;;;;5008046;28;20199;-80
2022/04/25 03:40:38;;;;;;;20.00;16.87;;;;;;;;;;5007269;28;20194;-80
2022/04/25 03:43:08;;;;;;;16.83;15.13;;;;;;;;;;5009818;28;20207;-80
2022/04/25 03:45:35;;;;;;;15.50;13.83;;;;;;;;;;5008407;28;20258;-80
2022/04/25 03:48:02;;;;;;;14.88;13.38;;;;;;;;;;5005374;28;20434;-80
2022/04/25 03:50:28;;;;;;;14.27;12.87;;;;;;;;;;5009838;28;20179;-80
2022/04/25 03:52:55;;;;;;;13.73;12.33;;;;;;;;;;5008291;28;20666;-80
2022/04/25 03:58:06;;;;;;;12.60;11.40;;;;;;;;;;5004669;28;20209;-80
2022/04/25 04:00:33;;;;;;;12.47;11.30;;;;;;;;;;5009704;28;20187;-80
2022/04/25 04:02:59;;;;;;;13.60;12.30;;;;;;;;;;5010028;28;20241;-82
2022/04/25 04:05:26;;;;;;;13.70;12.40;;;;;;;;;;5005808;28;20175;-80
2022/04/25 04:07:53;;;;;;;13.10;11.90;;;;;;;;;;5010035;28;20195;-80
2022/04/25 04:10:19;;;;;;;16.30;14.60;;;;;;;;;;5006187;28;20194;-81
2022/04/25 04:12:48;;;;;;;15.70;14.10;;;;;;;;;;5010017;28;20210;-80
2022/04/25 04:15:17;;;;;;;18.93;16.13;;;;;;;;;;5008878;28;20200;-79
2022/04/25 04:17:43;;;;;;;17.40;15.60;;;;;;;;;;5009208;28;20215;-80
2022/04/25 04:20:11;;;;;;;19.73;17.03;;;;;;;;;;5010333;28;20191;-80
2022/04/25 04:22:37;;;;;;;18.60;16.27;;;;;;;;;;5014852;28;20241;-81
2022/04/25 04:25:05;;;;;;;18.40;16.17;;;;;;;;;;5015627;28;20183;-80
2022/04/25 04:27:32;;;;;;;17.73;15.83;;;;;;;;;;5012998;28;20578;-80
2022/04/25 04:30:00;;;;;;;17.43;15.53;;;;;;;;;;5013610;28;20184;-80
2022/04/25 04:32:29;;;;;;;19.40;17.40;;;;;;;;;;5014634;28;20175;-81
2022/04/25 04:34:59;;;;;;;15.90;14.30;;;;;;;;;;4995784;28;20190;-82
2022/04/25 04:37:26;;;;;;;15.50;13.90;;;;;;;;;;4981211;28;20878;-84
2022/04/25 04:42:38;;;;;;;15.07;13.57;;;;;;;;;;5016041;28;20302;-80
2022/04/25 04:45:04;;;;;;;15.97;14.37;;;;;;;;;;5015726;28;20187;-80
2022/04/25 04:47:34;;;;;;;17.83;16.03;;;;;;;;;;5014617;28;20252;-78
2022/04/25 04:50:00;;;;;;;20.70;18.50;;;;;;;;;;5012932;28;20175;-78
2022/04/25 04:52:26;;;;;;;19.77;17.63;;;;;;;;;;5013798;28;20190;-78
2022/04/25 04:54:53;;;;;;;18.63;16.50;;;;;;;;;;5011293;28;20191;-78
2022/04/25 04:57:19;;;;;;;19.77;17.70;;;;;;;;;;5014448;28;20639;-78
2022/04/25 04:59:45;;;;;;;22.93;20.13;;;;;;;;;;5013823;28;20287;-78
2022/04/25 05:02:11;;;;;;;18.73;16.43;;;;;;;;;;4993784;28;20204;-78
2022/04/25 05:04:38;;;;;;;24.47;20.30;;;;;;;;;;5018246;28;20182;-78
2022/04/25 05:07:05;;;;;;;18.63;16.70;;;;;;;;;;5012952;28;21000;-78
2022/04/25 05:09:31;;;;;;;20.93;18.63;;;;;;;;;;5008152;28;20184;-78
2022/04/25 05:11:57;;;;;;;18.60;16.60;;;;;;;;;;5012906;28;20572;-78
2022/04/25 05:14:23;;;;;;;21.17;18.80;;;;;;;;;;5009239;28;20192;-78
2022/04/25 05:16:50;;;;;;;18.13;16.23;;;;;;;;;;5012929;28;20278;-77
2022/04/25 05:19:16;;;;;;;18.27;16.37;;;;;;;;;;5012273;28;20179;-77
2022/04/25 05:21:42;;;;;;;18.30;16.40;;;;;;;;;;5012458;28;20211;-78
2022/04/25 05:24:09;;;;;;;19.10;17.20;;;;;;;;;;5013792;28;20207;-78
2022/04/25 05:26:35;;;;;;;20.27;17.63;;;;;;;;;;5012188;28;20270;-78
2022/04/25 05:29:01;;;;;;;18.03;16.13;;;;;;;;;;5020195;28;20246;-78
2022/04/25 05:31:28;;;;;;;19.53;16.57;;;;;;;;;;5013090;28;20559;-78
2022/04/25 05:33:54;;;;;;;18.93;16.97;;;30.90;30.50;;;;;;5011344;28;20175;-79
2022/04/25 05:36:24;;;;;;;21.03;18.43;;;7.60;99.90;;;;;;5009272;28;20605;-78
2022/04/25 05:38:50;;;;;;;21.57;19.27;;;7.40;99.90;;;;;;5011976;28;20296;-78
2022/04/25 05:41:16;;;;;;;18.90;17.00;;;7.50;99.90;;;;;;5007413;28;20270;-78
2022/04/25 05:43:42;;;;;;;18.57;16.67;;;7.60;99.90;;;;;;5013026;28;20302;-78
2022/04/25 05:46:08;;;;;;;19.90;17.43;;;7.50;99.90;;;;;;5012976;28;20172;-78
2022/04/25 05:54:04;;;;;;;21.23;19.03;;;7.40;99.90;;;;;;5006009;28;20191;-78
2022/04/25 05:56:30;;;;;;;20.13;18.03;;;7.50;99.90;;;;;;5013344;28;20175;-78
2022/04/25 05:58:55;;;;;;;20.60;18.50;;;7.50;99.90;;;;;;5005582;28;20199;-78
2022/04/25 06:01:21;;;;;;;19.47;17.47;;;7.60;99.90;;;;;;5011929;28;20183;-78
2022/04/25 06:03:47;;;;;;;20.30;18.13;;;7.70;99.90;;;;;;5012269;28;20218;-78
2022/04/25 06:06:13;;;;;;;18.57;16.10;;;7.90;99.90;;;;;;5011406;28;20543;-78
2022/04/25 06:08:38;;;;;;;18.40;16.60;;;8.10;99.90;;;;;;5008137;28;20643;-78
2022/04/25 06:11:04;;;;;;;18.27;16.37;;;8.40;99.90;;;;;;5006377;28;20640;-78
2022/04/25 06:13:30;;;;;;;19.00;15.90;;;8.60;99.90;;;;;;5012823;28;20190;-79
2022/04/25 06:15:56;;;;;;;20.23;17.73;;;8.80;99.90;;;;;;5012097;28;20635;-78
2022/04/25 06:18:22;;;;;;;20.47;18.37;;;8.90;99.90;;;;;;5012367;28;20203;-78
2022/04/25 06:20:50;;;;;;;20.87;18.67;;;9.10;99.90;;;;;;5011567;28;20187;-78
2022/04/25 06:23:16;;;;;;;22.20;19.87;;;9.30;99.90;;;;;;5012370;28;20206;-78
2022/04/25 06:25:41;;;;;;;22.93;18.80;;;9.40;99.90;;;;;;5010925;28;20183;-78
2022/04/25 06:28:07;;;;;;;21.43;18.63;;;9.50;99.90;;;;;;4994782;28;20672;-78
2022/04/25 06:30:34;;;;;;;22.53;18.03;;;9.50;99.90;;;;;;5004635;28;20187;-78
2022/04/25 06:33:00;;;;;;;21.77;19.10;;;9.60;99.90;;;;;;5011065;28;20233;-79
2022/04/25 06:35:27;;;;;;;20.83;18.63;;;9.70;99.90;;;;;;5004910;28;20179;-78
2022/04/25 06:37:53;;;;;;;21.00;18.70;;;9.70;99.90;;;;;;5012487;28;20257;-79
2022/04/25 06:40:20;;;;;;;19.03;17.07;;;9.80;99.90;;;;;;5009110;28;20241;-79
2022/04/25 06:42:47;;;;;;;20.53;18.47;;;9.90;99.90;;;;;;4994581;28;20746;-79
2022/04/25 06:45:13;;;;;;;19.20;17.20;;;10.00;99.90;;;;;;5009686;28;20183;-79
2022/04/25 06:47:40;;;;;;;19.77;17.77;;;10.00;99.90;;;;;;5009087;28;20285;-79
2022/04/25 06:50:06;;;;;;;18.97;17.00;;;10.10;99.90;;;;;;5008368;28;20207;-79
2022/04/25 06:52:33;;;;;;;20.80;18.60;;;10.20;99.90;;;;;;5010401;28;20183;-79
2022/04/25 06:54:59;;;;;;;19.83;17.73;;;10.30;99.90;;;;;;4969249;28;20667;-79
2022/04/25 06:57:25;;;;;;;18.87;16.97;;;10.30;99.90;;;;;;5004806;28;20206;-79
2022/04/25 06:59:51;;;;;;;21.07;18.87;;;10.40;99.90;;;;;;5010461;28;20179;-79
2022/04/25 07:02:16;;;;;;;19.63;16.30;;;10.40;99.90;;;;;;5009926;28;20250;-79
2022/04/25 07:04:43;;;;;;;19.60;17.70;;;;;;;;;;5012013;28;20183;-79
2022/04/25 07:07:10;;;;;;;19.23;16.77;;;;;;;;;;5007936;28;20203;-79
2022/04/25 07:09:36;;;;;;;20.37;18.27;;;;;;;;;;5002490;28;20188;-79
2022/04/25 07:12:02;;;;;;;19.87;17.87;;;;;;;;;;5013082;28;20191;-79
2022/04/25 07:14:29;;;;;;;20.70;18.50;;;;;;;;;;5013120;28;20742;-79
2022/04/25 07:16:59;;;;;;;19.87;17.67;;;;;;;;;;4994012;28;20187;-85
2022/04/25 07:19:26;;;;;;;20.47;18.40;;;;;;;;;;5012270;28;20198;-81
2022/04/25 07:30:07;;;;;;;18.83;16.87;;;;;;;;;;5025157;28;20595;-78
2022/04/25 07:32:37;;;;;;;19.50;17.40;;;;;;;;;;5007447;28;20278;-80
2022/04/25 07:35:04;;;;;;;19.20;17.30;;;;;;;;;;5002406;28;20210;-84
2022/04/25 07:37:33;;;;;;;19.20;17.20;;;;;;;;;;5007592;28;20282;-79
2022/04/25 07:39:59;;;;;;;19.17;17.17;;;;;;;;;;5031005;28;20199;-79
2022/04/25 07:42:25;;;;;;;20.97;18.87;;;;;;;;;;5017007;28;20217;-80
2022/04/25 07:44:51;;;;;;;19.83;17.57;;;;;;;;;;5014777;28;20218;-79
2022/04/25 07:47:18;;;;;;;18.67;16.77;;;;;;;;;;4997867;28;20709;-79
2022/04/25 07:49:44;;;;;;;16.70;15.10;;;;;;;;;;5015411;28;20270;-79
2022/04/25 07:52:10;;;;;;;16.47;14.77;;;;;;;;;;5044740;28;20281;-79
2022/04/25 07:54:37;;;;;;;14.70;13.30;;;;;;;;;;5024824;28;20238;-80
2022/04/25 07:57:03;;;;;;;15.00;13.60;;;;;;;;;;5025160;28;20294;-79
2022/04/25 07:59:29;;;;;;;17.93;16.10;;;11.90;99.90;;;;;;5026772;28;20329;-80
2022/04/25 08:01:55;;;;;;;23.33;20.93;;;12.00;99.90;;;;;;5022343;28;20219;-80
2022/04/25 08:04:21;;;;;;;22.00;19.67;;;12.10;99.90;;;;;;5021345;28;20270;-81
2022/04/25 08:06:47;;;;;;;21.37;18.57;;;12.20;99.90;;;;;;5018003;28;20186;-78
2022/04/25 08:09:13;;;;;;;20.97;18.73;;;12.30;99.90;;;;;;5019535;28;20327;-82
2022/04/25 08:11:39;;;;;;;23.37;20.97;;;12.40;99.90;;;;;;5020764;28;20195;-82
2022/04/25 08:19:39;;;;;;;21.87;19.57;;;12.60;99.90;;;;;;5021516;28;20206;-85
2022/04/25 08:22:07;;;;;;;22.13;19.93;;;12.50;99.90;;;;;;5017259;28;20222;-81
2022/04/25 08:24:35;;;;;;;21.47;19.13;;;12.60;99.90;;;;;;4998562;28;20183;-76
2022/04/25 08:27:05;;;;;;;19.97;17.97;;;12.60;99.90;;;;;;5017121;28;20184;-78
2022/04/25 08:29:33;;;;;;;20.03;18.03;;;12.60;99.90;;;;;;5011814;28;20180;-84
2022/04/25 08:31:59;;;;;;;17.67;15.80;;;12.60;99.90;;;;;;4997877;28;20190;-78
2022/04/25 08:34:25;;;;;;;19.73;17.63;;;12.70;99.90;;;;;;5014672;28;20198;-80
2022/04/25 08:36:51;;;;;;;19.47;17.47;;;12.70;99.90;;;;;;5037195;28;20203;-80
2022/04/25 08:39:18;;;;;;;19.40;17.50;;;12.80;99.90;;;;;;5015034;28;20186;-80
2022/04/25 08:41:50;;;;;;;16.70;15.10;;;12.90;99.90;;;;;;4997924;28;20246;-80
2022/04/25 08:44:18;;;;;;;18.10;16.30;;;13.00;99.90;;;;;;5010758;28;20183;-80
2022/04/25 08:46:51;;;;;;;19.77;17.77;;;13.10;99.90;;;;;;5022234;28;20206;-80
2022/04/25 08:49:19;;;;;;;21.30;19.10;;;13.20;99.90;;;;;;5015816;28;20225;-79
2022/04/25 08:51:46;;;;;;;21.00;19.00;;;13.20;99.90;;;;;;5013613;28;20179;-80
2022/04/25 08:54:14;;;;;;;20.80;18.70;;;13.40;99.90;;;;;;5015378;28;20171;-80
2022/04/25 08:56:41;;;;;;;19.30;17.30;;;13.40;99.90;;;;;;5009131;28;20180;-79
2022/04/25 08:59:08;;;;;;;19.23;17.33;;;13.50;99.90;;;;;;5011320;28;20199;-79
2022/04/25 09:01:35;;;;;;;18.47;16.57;;;13.60;99.90;;;;;;5015816;28;20581;-79
2022/04/25 09:04:02;;;;;;;17.47;15.60;;;13.70;99.90;;;;;;4998485;28;20564;-81
2022/04/25 09:06:29;;;;;;;17.97;16.23;;;13.80;99.10;;;;;;5015561;28;20190;-80
2022/04/25 09:08:55;;;;;;;17.77;15.97;;;13.90;99.90;;;;;;5014215;28;20204;-79
2022/04/25 09:14:06;;;;;;;16.97;15.27;;;14.10;97.90;;;;;;5003465;28;20259;-81
2022/04/25 09:16:32;;;;;;;17.27;15.47;;;14.20;96.00;;;;;;4987348;28;20277;-77
2022/04/25 09:19:01;;;;;;;16.73;15.13;;;14.30;96.10;;;;;;5012849;28;20261;-84
2022/04/25 09:21:28;;;;;;;14.40;13.00;;;14.30;94.30;;;;;;5013321;28;20189;-80
2022/04/25 09:23:54;;;;;;;15.70;14.10;;;14.40;95.90;;;;;;5014269;28;20288;-80
2022/04/25 09:26:28;;;;;;;15.70;14.20;;;14.40;92.90;;;;;;5010639;28;20266;-81
2022/04/25 09:28:57;;;;;;;14.93;12.87;;;14.50;93.20;;;;;;5006505;28;20218;-80
2022/04/25 09:31:27;;;;;;;13.10;11.90;;;14.60;90.40;;;;;;4998072;28;20246;-79
2022/04/25 09:33:54;;;;;;;13.20;11.20;;;14.70;81.00;;;;;;5014718;28;20647;-80
2022/04/25 09:36:21;;;;;;;12.53;11.23;;;14.70;81.40;;;;;;5013352;28;20198;-81
2022/04/25 09:38:47;;;;;;;12.20;10.90;;;14.60;80.10;;;;;;5013934;28;20211;-77
2022/04/25 09:41:14;;;;;;;12.33;11.13;;;14.60;79.90;;;;;;5011566;28;20241;-79
2022/04/25 09:43:47;;;;;;;11.33;10.20;;;14.70;81.90;;;;;;5013071;28;20206;-79
2022/04/25 09:46:15;;;;;;;13.37;12.07;;;14.80;79.90;;;;;;5006869;28;20244;-82
2022/04/25 09:49:01;;;;;;;12.83;11.27;;;14.90;76.90;;;;;;5015024;28;20241;-83
2022/04/25 09:51:27;;;;;;;11.30;10.20;;;15.00;76.20;;;;;;5014102;28;20246;-81
2022/04/25 09:53:53;;;;;;;11.30;10.20;;;15.10;72.90;;;;;;5007825;28;20183;-79
2022/04/25 09:56:25;;;;;;;10.90;9.87;;;15.20;75.80;;;;;;5010430;28;20191;-79
2022/04/25 09:59:04;;;;;;;12.23;10.47;;;15.50;74.10;;;;;;5013309;28;20721;-80
2022/04/25 10:01:37;;;;;;;13.20;11.97;;;15.60;73.10;;;;;;5010094;28;20226;-78
2022/04/25 10:04:04;;;;;;;13.33;11.93;;;15.70;73.80;;;;;;4995658;28;20231;-79
2022/04/25 10:06:32;;;;;;;12.43;11.33;;;15.80;73.50;;;;;;5007509;28;20242;-78
2022/04/25 10:09:02;;;;;;;13.83;12.47;;;15.90;73.20;;;;;;5011250;28;20200;-79
2022/04/25 10:11:33;;;;;;;12.97;11.73;;;16.10;73.40;;;;;;5002783;28;20194;-78
2022/04/25 10:14:00;;;;;;;14.67;13.30;;;16.30;70.40;;;;;;5013578;28;20662;-79
2022/04/25 10:16:27;;;;;;;13.97;12.67;;;16.40;68.30;;;;;;5007823;28;20183;-80
2022/04/25 10:18:54;;;;;;;13.10;11.90;;;16.40;66.90;;;;;;5010702;28;20207;-79
2022/04/25 10:21:25;;;;;;;13.90;12.30;;;16.60;67.70;;;;;;5011262;28;20226;-79
2022/04/25 10:23:52;;;;;;;13.23;12.03;;;16.90;65.50;;;;;;5008927;28;20211;-79
2022/04/25 10:26:26;;;;;;;12.07;10.87;;;17.10;64.60;;;;;;5006596;28;20206;-79
2022/04/25 10:28:55;;;;;;;12.20;11.00;;;17.20;64.20;;;;;;5003006;28;20195;-81
2022/04/25 10:31:30;;;;;;;11.53;10.53;;;17.40;64.30;;;;;;5015845;28;20262;-80
2022/04/25 10:33:59;;;;;;;10.50;9.60;;;17.50;61.00;;;;;;5008670;28;20187;-79
2022/04/25 10:36:38;;;;;;;12.47;11.27;;;17.50;60.80;;;;;;5005101;28;20184;-80
2022/04/25 10:39:12;;;;;;;11.17;10.27;;;17.60;60.80;;;;;;5012056;28;20222;-82
2022/04/25 10:44:28;;;;;;;11.57;10.53;;;17.70;59.00;;;;;;5006805;28;20175;-79
2022/04/25 10:47:06;;;;;;;11.80;10.70;;;17.90;58.90;;;;;;5009281;28;20674;-79
2022/04/25 10:49:55;;;;;;;11.53;10.53;;;18.00;58.60;;;;;;5012338;28;20183;-79
2022/04/25 10:52:42;;;;;;;12.33;10.67;;;18.10;58.50;;;;;;5012384;28;20225;-79
2022/04/25 10:55:23;;;;;;;11.93;10.93;;;18.40;58.30;;;;;;5012349;28;20191;-79
2022/04/25 10:58:05;;;;;;;11.47;10.17;;;;;;;;;;5012059;28;20742;-83
2022/04/25 11:00:40;;;;;;;9.53;8.63;;;;;;;;;;5012837;28;20191;-82
2022/04/25 11:03:10;;;;;;;8.87;8.07;;;;;;;;;;4995292;28;20202;-80
2022/04/25 11:05:40;;;;;;;10.70;9.63;;;;;;;;;;5012680;28;20305;-80
2022/04/25 11:08:22;;;;;;;11.77;9.90;;;;;;;;;;5011794;28;20211;-80
2022/04/25 11:10:49;;;;;;;10.23;9.33;;;;;;;;;;5028696;28;20240;-81
2022/04/25 11:13:18;;;;;;;10.23;9.23;;;;;;;;;;5023576;28;20720;-80
2022/04/25 11:15:45;;;;;;;10.50;9.57;;;;;;;;;;5012418;28;20222;-80
2022/04/25 11:18:43;;;;;;;9.70;8.80;;;;;;;;;;5013532;28;20592;-81
2022/04/25 11:21:14;;;;;;;9.43;8.63;;;;;;;;;;5010669;28;20179;-80
2022/04/25 11:23:44;;;;;;;9.80;8.90;;;;;;;;;;5024051;28;20207;-80
2022/04/25 11:26:11;;;;;;;8.27;7.57;;;;;;;;;;5013624;28;20195;-80
2022/04/25 11:29:01;;;;;;;9.13;8.33;;;;;;;;;;5015989;28;20200;-80
2022/04/25 11:31:28;;;;;;;7.93;7.23;;;;;;;;;;5028507;28;20215;-80
2022/04/25 11:33:56;;;;;;;8.37;7.53;;;;;;;;;;5005894;28;20236;-80
2022/04/25 11:36:23;;;;;;;8.03;7.33;;;;;;;;;;5009231;28;20198;-80
2022/04/25 11:41:37;;;;;;;6.33;5.77;;;;;;;;;;5014567;28;20202;-80
2022/04/25 11:44:07;;;;;;;6.80;6.20;;;;;;;;;;5016961;28;20183;-80
2022/04/25 11:46:34;;;;;;;6.20;5.70;;;;;;;;;;5012217;28;20210;-80
2022/04/25 11:49:00;;;;;;;6.30;5.80;;;;;;;;;;5014953;28;20257;-80
2022/04/25 11:51:28;;;;;;;5.97;5.37;;;;;;;;;;5011389;28;20188;-80
2022/04/25 11:53:55;;;;;;;5.97;5.37;;;;;;;;;;5013662;28;20194;-81
2022/04/25 11:56:21;;;;;;;6.77;6.17;;;;;;;;;;5010625;28;20183;-80
2022/04/25 11:58:48;;;;;;;6.30;5.80;;;;;;;;;;5006827;28;20260;-81
2022/04/25 12:01:31;;;;;;;6.30;5.80;;;;;;;;;;5008203;28;20279;-80
2022/04/25 12:04:15;;;;;;;6.53;5.63;;;;;;;;;;4999967;28;20218;-80
2022/04/25 12:06:48;;;;;;;6.40;5.80;;;;;;;;;;5015097;28;20214;-80
2022/04/25 12:17:38;;;;;;;6.33;5.83;;;;;;;;;;5018467;28;20238;-80
2022/04/25 12:20:07;;;;;;;6.03;5.27;;;;;;;;;;5011356;28;20196;-80
2022/04/25 12:22:34;;;;;;;5.90;5.40;;;;;;;;;;5015511;28;20278;-81
2022/04/25 12:25:14;;;;;;;5.83;5.23;;;;;;;;;;5010805;28;20221;-79
2022/04/25 12:27:41;;;;;;;6.37;5.87;;;;;;;;;;4999261;28;20199;-77
2022/04/25 12:30:08;;;;;;;6.47;5.80;;;;;;;;;;5005567;28;20657;-77
2022/04/25 12:32:34;;;;;;;6.83;5.73;;;;;;;;;;5009820;28;20690;-78
2022/04/25 12:35:01;;;;;;;6.63;6.07;;;;;;;;;;5007323;28;20188;-78
2022/04/25 12:37:27;;;;;;;6.40;5.80;;;;;;;;;;5009562;28;20228;-77
2022/04/25 12:40:05;;;;;;;6.50;5.90;;;;;;;;;;5009069;28;20188;-78
2022/04/25 12:42:47;;;;;;;6.10;5.60;;;;;;;;;;5011278;28;20257;-78
2022/04/25 12:45:18;;;;;;;5.90;5.30;;;;;;;;;;5008737;28;20232;-78
2022/04/25 12:47:44;;;;;;;5.60;5.17;;;;;;;;;;5013931;28;20199;-77
2022/04/25 12:50:11;;;;;;;5.70;5.20;;;;;;;;;;5010687;28;20202;-78
2022/04/25 12:52:49;;;;;;;5.67;5.23;;;;;;;;;;5007116;28;20569;-78
2022/04/25 12:55:15;;;;;;;5.40;4.73;;;;;;;;;;5010980;28;20733;-77
2022/04/25 12:57:51;;;;;;;6.30;5.67;;;;;;;;;;5013605;28;20293;-77
2022/04/25 13:00:17;;;;;;;5.70;5.20;;;;;;;;;;5008396;28;20188;-77
2022/04/25 13:02:44;;;;;;;5.80;5.30;;;;;;;;;;5014204;28;20230;-78
2022/04/25 13:05:12;;;;;;;5.80;5.30;;;;;;;;;;5013947;28;20235;-77
2022/04/25 13:07:43;;;;;;;5.67;5.23;;;;;;;;;;5013931;28;20233;-77
2022/04/25 13:10:18;;;;;;;4.70;4.20;;;;;;;;;;5013444;28;20237;-77
2022/04/25 13:12:50;;;;;;;6.30;5.73;;;;;;;;;;5011454;28;20202;-77
2022/04/25 13:15:18;;;;;;;5.57;5.17;;;;;;;;;;5017580;28;20195;-77
2022/04/25 13:17:45;;;;;;;6.00;5.50;;;;;;;;;;5010481;28;20578;-77
2022/04/25 13:20:14;;;;;;;5.43;5.03;;;;;;;;;;5013576;28;20191;-77
2022/04/25 13:22:44;;;;;;;5.30;4.90;;;;;;;;;;5014137;28;20222;-77
2022/04/25 13:25:11;;;;;;;5.47;4.97;;;;;;;;;;5017513;28;20191;-77
2022/04/25 13:27:38;;;;;;;5.37;4.97;;;;;;;;;;5016126;28;20202;-77
2022/04/25 13:30:05;;;;;;;7.30;6.60;;;;;;;;;;5016282;28;20653;-77
2022/04/25 13:32:32;;;;;;;10.73;7.00;;;;;;;;;;5012380;28;20516;-77
2022/04/25 13:34:58;;;;;;;6.60;6.10;;;;;;;;;;5015295;28;20183;-77
2022/04/25 13:37:26;;;;;;;7.40;6.70;;;;;;;;;;5011646;28;20718;-77
2022/04/25 13:40:10;;;;;;;7.90;7.10;;;;;;;;;;5015743;28;20215;-77
2022/04/25 13:42:41;;;;;;;7.60;6.97;;;;;;;;;;5013595;28;20295;-77
2022/04/25 13:45:08;;;;;;;7.63;6.83;;;;;;;;;;5011853;28;20630;-78
2022/04/25 13:47:34;;;;;;;6.80;6.20;;;;;;;;;;5010536;28;20203;-77
2022/04/25 13:50:00;;;;;;;7.47;6.87;;;;;;;;;;5008539;28;20191;-78
2022/04/25 13:52:26;;;;;;;7.07;6.47;;;;;;;;;;5010887;28;20192;-79
2022/04/25 13:54:52;;;;;;;6.77;6.17;;;;;;;;;;5015961;28;20187;-79
2022/04/25 13:57:18;;;;;;;6.57;6.07;;;;;;;;;;5010305;28;20211;-81
2022/04/25 13:59:45;;;;;;;6.40;5.90;;;;;;;;;;5015067;28;20183;-79
2022/04/25 14:04:56;;;;;;;7.43;6.83;;;;;;;;;;4996083;28;20259;-80
2022/04/25 14:07:22;;;;;;;6.53;5.90;;;;;;;;;;5012424;28;20199;-80
2022/04/25 14:09:49;;;;;;;6.03;5.53;;;;;;;;;;5015959;28;20270;-80
2022/04/25 14:12:15;;;;;;;4.97;4.47;;;;;;;;;;5017070;28;20203;-80
2022/04/25 14:14:41;;;;;;;5.10;4.70;;;;;;;;;;5018181;28;20549;-80
2022/04/25 14:17:07;;;;;;;6.20;5.60;;;;;;;;;;5017717;28;20213;-80
2022/04/25 14:19:34;;;;;;;6.33;5.80;;;;;;;;;;5011000;28;20941;-80
2022/04/25 14:22:00;;;;;;;5.70;5.30;;;;;;;;;;5015381;28;20189;-80
2022/04/25 14:24:26;;;;;;;5.90;5.13;;;;;;;;;;5008294;28;20183;-80
2022/04/25 14:26:52;;;;;;;5.87;5.37;;;;;;;;;;5014285;28;20183;-80
2022/04/25 14:29:19;;;;;;;5.67;5.10;;;;;;;;;;5016405;28;20652;-80
2022/04/25 14:31:46;;;;;;;5.60;5.10;;;;;;;;;;5024903;28;20212;-80
2022/04/25 14:34:12;;;;;;;5.07;4.67;;;;;;;;;;5014281;28;20185;-80
2022/04/25 14:36:39;;;;;;;4.87;4.47;;;;;;;;;;5008337;28;20307;-80
2022/04/25 14:39:05;;;;;;;5.53;4.30;;;;;;;;;;5009715;28;20240;-80
2022/04/25 14:41:31;;;;;;;3.87;3.57;;;;;;;;;;5013312;28;20654;-80